sensor_id;sensor_type;location;lat;lon;timestamp;pressure;altitude;pressure_sealevel;temperature;humidity
24160;BME280;62385;41.594;23.808;2023-04-07T00:00:03;95088.00;;;5.22;53.03
24160;BME280;62385;41.594;23.808;2023-04-07T00:02:37;95101.78;;;3.86;56.99
24160;BME280;62385;41.594;23.808;2023-04-07T00:05:03;95091.41;;;4.87;52.81
24160;BME280;62385;41.594;23.808;2023-04-07T00:07:29;95093.78;;;4.81;54.18
24160;BME280;62385;41.594;23.808;2023-04-07T00:09:55;95097.50;;;3.76;58.07
24160;BME280;62385;41.594;23.808;2023-04-07T00:12:20;95094.56;;;3.98;57.86
24160;BME280;62385;41.594;23.808;2023-04-07T00:14:46;95098.66;;;4.76;55.97
24160;BME280;62385;41.594;23.808;2023-04-07T00:17:11;95088.13;;;5.03;54.12
24160;BME280;62385;41.594;23.808;2023-04-07T00:19:37;95094.78;;;4.97;53.65
24160;BME280;62385;41.594;23.808;2023-04-07T00:22:02;95097.38;;;5.07;52.38
24160;BME280;62385;41.594;23.808;2023-04-07T00:24:28;95102.84;;;4.22;55.97
24160;BME280;62385;41.594;23.808;2023-04-07T00:26:54;95089.81;;;5.04;54.03
24160;BME280;62385;41.594;23.808;2023-04-07T00:29:21;95092.34;;;5.58;50.50
24160;BME280;62385;41.594;23.808;2023-04-07T00:31:46;95106.88;;;4.63;54.08
24160;BME280;62385;41.594;23.808;2023-04-07T00:34:31;95100.50;;;4.65;54.18
24160;BME280;62385;41.594;23.808;2023-04-07T00:36:57;95099.66;;;5.20;52.29
24160;BME280;62385;41.594;23.808;2023-04-07T00:39:22;95102.50;;;5.08;52.90
24160;BME280;62385;41.594;23.808;2023-04-07T00:41:48;95109.41;;;4.55;54.91
24160;BME280;62385;41.594;23.808;2023-04-07T00:44:15;95113.41;;;3.84;56.63
24160;BME280;62385;41.594;23.808;2023-04-07T00:46:40;95112.94;;;3.98;56.37
24160;BME280;62385;41.594;23.808;2023-04-07T00:49:07;95118.94;;;3.52;57.88
24160;BME280;62385;41.594;23.808;2023-04-07T00:51:33;95132.03;;;3.42;57.89
24160;BME280;62385;41.594;23.808;2023-04-07T00:54:00;95123.56;;;3.19;59.10
24160;BME280;62385;41.594;23.808;2023-04-07T00:56:26;95142.94;;;2.88;59.72
24160;BME280;62385;41.594;23.808;2023-04-07T00:58:52;95139.28;;;3.10;59.23
24160;BME280;62385;41.594;23.808;2023-04-07T01:01:22;95144.72;;;2.88;58.63
24160;BME280;62385;41.594;23.808;2023-04-07T01:04:08;95141.81;;;3.31;58.32
24160;BME280;62385;41.594;23.808;2023-04-07T01:06:44;95149.56;;;2.92;59.28
24160;BME280;62385;41.594;23.808;2023-04-07T01:09:18;95144.38;;;3.02;59.65
24160;BME280;62385;41.594;23.808;2023-04-07T01:12:04;95151.97;;;2.74;60.06
24160;BME280;62385;41.594;23.808;2023-04-07T01:14:37;95152.53;;;2.68;59.95
24160;BME280;62385;41.594;23.808;2023-04-07T01:17:24;95142.88;;;2.69;59.80
24160;BME280;62385;41.594;23.808;2023-04-07T01:20:00;95151.25;;;2.63;60.50
24160;BME280;62385;41.594;23.808;2023-04-07T01:22:33;95155.00;;;2.40;61.12
24160;BME280;62385;41.594;23.808;2023-04-07T01:31:40;95160.41;;;2.48;60.66
24160;BME280;62385;41.594;23.808;2023-04-07T01:34:11;95155.44;;;2.24;61.65
24160;BME280;62385;41.594;23.808;2023-04-07T01:36:37;95152.25;;;2.71;60.15
24160;BME280;62385;41.594;23.808;2023-04-07T01:39:02;95158.72;;;2.67;59.72
24160;BME280;62385;41.594;23.808;2023-04-07T01:41:29;95150.13;;;2.56;59.59
24160;BME280;62385;41.594;23.808;2023-04-07T01:43:55;95158.19;;;2.43;60.55
24160;BME280;62385;41.594;23.808;2023-04-07T01:46:22;95149.13;;;2.57;60.28
24160;BME280;62385;41.594;23.808;2023-04-07T01:48:49;95159.88;;;2.54;60.30
24160;BME280;62385;41.594;23.808;2023-04-07T01:51:20;95158.13;;;2.33;60.37
24160;BME280;62385;41.594;23.808;2023-04-07T01:53:48;95150.34;;;2.22;61.07
24160;BME280;62385;41.594;23.808;2023-04-07T01:56:14;95148.38;;;2.36;60.47
24160;BME280;62385;41.594;23.808;2023-04-07T01:58:40;95151.59;;;2.28;60.97
24160;BME280;62385;41.594;23.808;2023-04-07T02:01:08;95147.34;;;2.57;60.11
24160;BME280;62385;41.594;23.808;2023-04-07T02:03:43;95149.19;;;2.97;59.65
24160;BME280;62385;41.594;23.808;2023-04-07T02:06:12;95156.72;;;2.09;61.35
24160;BME280;62385;41.594;23.808;2023-04-07T02:08:46;95169.31;;;2.15;61.50
24160;BME280;62385;41.594;23.808;2023-04-07T02:11:17;95159.81;;;2.14;61.41
24160;BME280;62385;41.594;23.808;2023-04-07T02:13:46;95155.69;;;2.00;61.86
24160;BME280;62385;41.594;23.808;2023-04-07T02:16:14;95152.69;;;2.25;60.77
24160;BME280;62385;41.594;23.808;2023-04-07T02:18:42;95155.97;;;2.18;61.57
24160;BME280;62385;41.594;23.808;2023-04-07T02:21:11;95172.31;;;1.90;62.42
24160;BME280;62385;41.594;23.808;2023-04-07T02:23:39;95159.81;;;2.14;61.48
24160;BME280;62385;41.594;23.808;2023-04-07T02:26:05;95162.22;;;2.06;61.89
24160;BME280;62385;41.594;23.808;2023-04-07T02:28:30;95165.47;;;1.77;62.44
24160;BME280;62385;41.594;23.808;2023-04-07T02:30:57;95165.47;;;1.77;62.85
24160;BME280;62385;41.594;23.808;2023-04-07T02:33:23;95167.94;;;1.79;62.34
24160;BME280;62385;41.594;23.808;2023-04-07T02:35:49;95166.50;;;1.86;61.83
24160;BME280;62385;41.594;23.808;2023-04-07T02:38:15;95170.84;;;1.97;61.74
24160;BME280;62385;41.594;23.808;2023-04-07T02:40:40;95171.59;;;1.88;62.29
24160;BME280;62385;41.594;23.808;2023-04-07T02:43:06;95168.31;;;1.74;62.94
24160;BME280;62385;41.594;23.808;2023-04-07T02:45:32;95176.22;;;1.63;62.87
24160;BME280;62385;41.594;23.808;2023-04-07T02:47:57;95173.47;;;1.65;62.18
24160;BME280;62385;41.594;23.808;2023-04-07T02:50:23;95174.44;;;1.64;63.00
24160;BME280;62385;41.594;23.808;2023-04-07T02:52:50;95183.09;;;1.96;62.08
24160;BME280;62385;41.594;23.808;2023-04-07T02:55:16;95179.84;;;1.40;63.60
24160;BME280;62385;41.594;23.808;2023-04-07T02:57:42;95176.09;;;1.65;62.76
24160;BME280;62385;41.594;23.808;2023-04-07T03:00:18;95174.78;;;1.59;62.42
24160;BME280;62385;41.594;23.808;2023-04-07T03:03:04;95170.50;;;1.58;62.37
24160;BME280;62385;41.594;23.808;2023-04-07T03:05:34;95186.41;;;1.66;62.38
24160;BME280;62385;41.594;23.808;2023-04-07T03:08:01;95177.28;;;1.93;61.59
24160;BME280;62385;41.594;23.808;2023-04-07T03:10:27;95184.53;;;1.68;62.84
24160;BME280;62385;41.594;23.808;2023-04-07T03:12:52;95184.00;;;1.74;62.15
24160;BME280;62385;41.594;23.808;2023-04-07T03:15:36;95190.50;;;2.12;60.73
24160;BME280;62385;41.594;23.808;2023-04-07T03:18:02;95187.13;;;1.68;61.41
24160;BME280;62385;41.594;23.808;2023-04-07T03:20:29;95190.69;;;1.67;61.51
24160;BME280;62385;41.594;23.808;2023-04-07T03:23:00;95192.84;;;1.73;62.21
24160;BME280;62385;41.594;23.808;2023-04-07T03:25:28;95192.03;;;1.62;61.80
24160;BME280;62385;41.594;23.808;2023-04-07T03:27:54;95190.44;;;1.70;62.65
24160;BME280;62385;41.594;23.808;2023-04-07T03:30:20;95200.31;;;1.78;61.84
24160;BME280;62385;41.594;23.808;2023-04-07T03:32:46;95197.66;;;1.46;62.17
24160;BME280;62385;41.594;23.808;2023-04-07T03:35:12;95197.19;;;1.41;62.90
24160;BME280;62385;41.594;23.808;2023-04-07T03:37:37;95190.69;;;1.24;62.40
24160;BME280;62385;41.594;23.808;2023-04-07T03:40:10;95194.50;;;1.31;62.28
24160;BME280;62385;41.594;23.808;2023-04-07T03:42:35;95194.09;;;1.47;62.28
24160;BME280;62385;41.594;23.808;2023-04-07T03:45:05;95199.47;;;1.34;62.07
24160;BME280;62385;41.594;23.808;2023-04-07T03:47:32;95194.34;;;1.44;61.87
24160;BME280;62385;41.594;23.808;2023-04-07T03:50:01;95197.44;;;1.38;61.98
24160;BME280;62385;41.594;23.808;2023-04-07T03:52:29;95206.13;;;1.81;60.75
24160;BME280;62385;41.594;23.808;2023-04-07T03:55:02;95203.34;;;1.94;60.13
24160;BME280;62385;41.594;23.808;2023-04-07T03:57:30;95204.56;;;1.90;60.73
24160;BME280;62385;41.594;23.808;2023-04-07T03:59:56;95200.63;;;1.84;60.73
24160;BME280;62385;41.594;23.808;2023-04-07T04:02:21;95211.34;;;2.13;61.00
24160;BME280;62385;41.594;23.808;2023-04-07T04:04:50;95217.41;;;2.14;61.36
24160;BME280;62385;41.594;23.808;2023-04-07T04:07:34;95212.03;;;2.15;61.52
24160;BME280;62385;41.594;23.808;2023-04-07T04:10:04;95216.13;;;2.29;62.59
24160;BME280;62385;41.594;23.808;2023-04-07T04:12:35;95230.81;;;2.41;64.55
24160;BME280;62385;41.594;23.808;2023-04-07T04:15:06;95230.66;;;2.84;63.86
24160;BME280;62385;41.594;23.808;2023-04-07T04:17:33;95237.78;;;2.31;63.93
24160;BME280;62385;41.594;23.808;2023-04-07T04:19:58;95239.84;;;1.96;62.85
24160;BME280;62385;41.594;23.808;2023-04-07T04:22:39;95239.56;;;2.10;61.91
24160;BME280;62385;41.594;23.808;2023-04-07T04:25:05;95234.94;;;1.70;62.31
24160;BME280;62385;41.594;23.808;2023-04-07T04:27:31;95246.19;;;1.39;63.10
24160;BME280;62385;41.594;23.808;2023-04-07T04:30:05;95247.03;;;1.39;62.76
24160;BME280;62385;41.594;23.808;2023-04-07T04:32:50;95251.13;;;1.64;62.06
24160;BME280;62385;41.594;23.808;2023-04-07T04:35:20;95252.25;;;1.39;61.47
24160;BME280;62385;41.594;23.808;2023-04-07T04:37:59;95246.84;;;1.63;60.77
24160;BME280;62385;41.594;23.808;2023-04-07T04:40:25;95257.63;;;1.81;60.60
24160;BME280;62385;41.594;23.808;2023-04-07T04:42:51;95253.72;;;1.75;61.08
24160;BME280;62385;41.594;23.808;2023-04-07T04:45:19;95244.13;;;1.65;61.90
24160;BME280;62385;41.594;23.808;2023-04-07T04:47:46;95253.41;;;2.01;60.30
24160;BME280;62385;41.594;23.808;2023-04-07T04:50:12;95258.69;;;1.78;60.46
24160;BME280;62385;41.594;23.808;2023-04-07T04:52:39;95253.97;;;2.04;60.34
24160;BME280;62385;41.594;23.808;2023-04-07T04:55:12;95250.38;;;2.37;59.67
24160;BME280;62385;41.594;23.808;2023-04-07T04:57:38;95253.53;;;2.52;58.31
24160;BME280;62385;41.594;23.808;2023-04-07T05:00:08;95240.34;;;2.63;57.76
24160;BME280;62385;41.594;23.808;2023-04-07T05:02:35;95251.28;;;2.98;57.12
24160;BME280;62385;41.594;23.808;2023-04-07T05:05:04;95251.59;;;3.05;57.07
24160;BME280;62385;41.594;23.808;2023-04-07T05:07:30;95250.94;;;3.43;56.90
24160;BME280;62385;41.594;23.808;2023-04-07T05:09:56;95246.56;;;3.62;56.02
24160;BME280;62385;41.594;23.808;2023-04-07T05:12:22;95248.16;;;4.03;56.43
24160;BME280;62385;41.594;23.808;2023-04-07T05:14:54;95247.22;;;4.14;56.13
24160;BME280;62385;41.594;23.808;2023-04-07T05:17:20;95254.22;;;4.23;56.60
24160;BME280;62385;41.594;23.808;2023-04-07T05:19:45;95255.50;;;4.29;56.15
24160;BME280;62385;41.594;23.808;2023-04-07T05:22:21;95255.19;;;4.60;54.83
24160;BME280;62385;41.594;23.808;2023-04-07T05:24:49;95266.56;;;4.42;54.53
24160;BME280;62385;41.594;23.808;2023-04-07T05:27:15;95265.16;;;4.47;56.11
24160;BME280;62385;41.594;23.808;2023-04-07T05:29:41;95256.88;;;4.42;57.87
24160;BME280;62385;41.594;23.808;2023-04-07T05:32:13;95275.97;;;4.25;61.50
24160;BME280;62385;41.594;23.808;2023-04-07T05:34:39;95272.63;;;4.04;62.17
24160;BME280;62385;41.594;23.808;2023-04-07T05:37:05;95284.53;;;4.37;62.29
24160;BME280;62385;41.594;23.808;2023-04-07T05:39:33;95284.66;;;4.35;61.34
24160;BME280;62385;41.594;23.808;2023-04-07T05:42:00;95282.88;;;4.45;60.73
24160;BME280;62385;41.594;23.808;2023-04-07T05:44:27;95288.28;;;4.34;61.43
24160;BME280;62385;41.594;23.808;2023-04-07T05:46:54;95280.00;;;4.39;61.59
24160;BME280;62385;41.594;23.808;2023-04-07T05:49:23;95285.91;;;4.70;59.81
24160;BME280;62385;41.594;23.808;2023-04-07T05:51:57;95278.44;;;4.46;60.28
24160;BME280;62385;41.594;23.808;2023-04-07T05:54:24;95272.16;;;4.95;59.01
24160;BME280;62385;41.594;23.808;2023-04-07T05:56:50;95278.16;;;4.68;59.31
24160;BME280;62385;41.594;23.808;2023-04-07T05:59:17;95276.63;;;4.75;59.21
24160;BME280;62385;41.594;23.808;2023-04-07T06:01:43;95282.44;;;4.88;59.24
24160;BME280;62385;41.594;23.808;2023-04-07T06:04:10;95280.34;;;4.92;59.43
24160;BME280;62385;41.594;23.808;2023-04-07T06:06:36;95283.03;;;5.19;58.92
24160;BME280;62385;41.594;23.808;2023-04-07T06:09:03;95284.59;;;4.93;58.37
24160;BME280;62385;41.594;23.808;2023-04-07T06:11:30;95283.06;;;5.09;57.51
24160;BME280;62385;41.594;23.808;2023-04-07T06:13:55;95276.09;;;5.55;56.63
24160;BME280;62385;41.594;23.808;2023-04-07T06:16:21;95279.97;;;5.24;58.18
24160;BME280;62385;41.594;23.808;2023-04-07T06:18:46;95290.75;;;5.30;57.20
24160;BME280;62385;41.594;23.808;2023-04-07T06:21:12;95294.84;;;5.52;56.99
24160;BME280;62385;41.594;23.808;2023-04-07T06:23:37;95292.94;;;5.44;56.99
24160;BME280;62385;41.594;23.808;2023-04-07T06:26:06;95290.56;;;6.06;54.87
24160;BME280;62385;41.594;23.808;2023-04-07T06:28:34;95287.41;;;6.02;53.97
24160;BME280;62385;41.594;23.808;2023-04-07T06:31:00;95282.31;;;6.18;53.46
24160;BME280;62385;41.594;23.808;2023-04-07T06:33:25;95282.72;;;6.41;54.90
24160;BME280;62385;41.594;23.808;2023-04-07T06:35:52;95285.91;;;6.17;56.82
24160;BME280;62385;41.594;23.808;2023-04-07T06:38:18;95287.59;;;6.36;56.44
24160;BME280;62385;41.594;23.808;2023-04-07T06:40:44;95280.81;;;6.51;55.96
24160;BME280;62385;41.594;23.808;2023-04-07T06:43:10;95292.06;;;6.71;55.53
24160;BME280;62385;41.594;23.808;2023-04-07T06:45:40;95291.22;;;6.53;55.57
24160;BME280;62385;41.594;23.808;2023-04-07T06:48:06;95287.22;;;6.66;56.07
24160;BME280;62385;41.594;23.808;2023-04-07T06:50:31;95298.66;;;6.92;54.51
24160;BME280;62385;41.594;23.808;2023-04-07T06:52:58;95288.03;;;7.28;53.11
24160;BME280;62385;41.594;23.808;2023-04-07T06:55:24;95293.94;;;7.04;54.17
24160;BME280;62385;41.594;23.808;2023-04-07T06:57:51;95294.75;;;6.61;53.79
24160;BME280;62385;41.594;23.808;2023-04-07T07:00:17;95290.41;;;6.70;53.83
24160;BME280;62385;41.594;23.808;2023-04-07T07:02:43;95292.19;;;6.87;53.80
24160;BME280;62385;41.594;23.808;2023-04-07T07:05:09;95286.97;;;6.95;53.93
24160;BME280;62385;41.594;23.808;2023-04-07T07:07:36;95279.88;;;6.95;53.65
24160;BME280;62385;41.594;23.808;2023-04-07T07:10:02;95274.78;;;7.54;53.02
24160;BME280;62385;41.594;23.808;2023-04-07T07:12:27;95280.22;;;7.78;52.97
24160;BME280;62385;41.594;23.808;2023-04-07T07:14:53;95277.13;;;7.57;54.00
24160;BME280;62385;41.594;23.808;2023-04-07T07:17:18;95275.28;;;7.91;51.42
24160;BME280;62385;41.594;23.808;2023-04-07T07:19:44;95276.00;;;8.09;48.92
24160;BME280;62385;41.594;23.808;2023-04-07T07:22:10;95277.66;;;8.02;48.26
24160;BME280;62385;41.594;23.808;2023-04-07T07:24:36;95288.16;;;7.86;47.38
24160;BME280;62385;41.594;23.808;2023-04-07T07:27:02;95280.50;;;8.17;45.86
24160;BME280;62385;41.594;23.808;2023-04-07T07:29:28;95287.81;;;7.81;46.21
24160;BME280;62385;41.594;23.808;2023-04-07T07:31:54;95288.94;;;8.20;44.77
24160;BME280;62385;41.594;23.808;2023-04-07T07:34:19;95285.06;;;7.57;43.84
24160;BME280;62385;41.594;23.808;2023-04-07T07:36:45;95287.19;;;8.37;44.07
24160;BME280;62385;41.594;23.808;2023-04-07T07:39:10;95273.50;;;8.58;41.69
24160;BME280;62385;41.594;23.808;2023-04-07T07:41:36;95275.34;;;8.65;42.47
24160;BME280;62385;41.594;23.808;2023-04-07T07:44:01;95275.16;;;8.59;44.06
24160;BME280;62385;41.594;23.808;2023-04-07T07:46:27;95274.69;;;8.79;43.35
24160;BME280;62385;41.594;23.808;2023-04-07T07:48:52;95272.69;;;8.65;42.36
24160;BME280;62385;41.594;23.808;2023-04-07T07:51:18;95267.91;;;8.61;41.70
24160;BME280;62385;41.594;23.808;2023-04-07T07:53:44;95266.22;;;9.00;42.72
24160;BME280;62385;41.594;23.808;2023-04-07T07:56:11;95266.72;;;8.63;39.82
24160;BME280;62385;41.594;23.808;2023-04-07T07:58:37;95263.94;;;8.89;41.36
24160;BME280;62385;41.594;23.808;2023-04-07T08:01:03;95249.50;;;9.16;41.29
24160;BME280;62385;41.594;23.808;2023-04-07T08:03:28;95259.41;;;9.38;42.06
24160;BME280;62385;41.594;23.808;2023-04-07T08:05:54;95258.28;;;9.16;41.35
24160;BME280;62385;41.594;23.808;2023-04-07T08:08:20;95262.06;;;9.38;41.54
24160;BME280;62385;41.594;23.808;2023-04-07T08:10:46;95249.81;;;9.84;40.81
24160;BME280;62385;41.594;23.808;2023-04-07T08:13:11;95252.50;;;9.05;38.81
24160;BME280;62385;41.594;23.808;2023-04-07T08:15:38;95255.94;;;9.30;39.90
24160;BME280;62385;41.594;23.808;2023-04-07T08:18:04;95260.84;;;9.57;39.50
24160;BME280;62385;41.594;23.808;2023-04-07T08:20:31;95258.91;;;9.43;38.22
24160;BME280;62385;41.594;23.808;2023-04-07T08:22:57;95255.06;;;9.45;36.87
24160;BME280;62385;41.594;23.808;2023-04-07T08:25:24;95257.63;;;9.22;36.63
24160;BME280;62385;41.594;23.808;2023-04-07T08:27:50;95256.31;;;10.21;36.93
24160;BME280;62385;41.594;23.808;2023-04-07T08:30:15;95258.47;;;10.17;37.29
24160;BME280;62385;41.594;23.808;2023-04-07T08:32:43;95260.44;;;8.97;36.72
24160;BME280;62385;41.594;23.808;2023-04-07T08:35:10;95253.81;;;9.17;36.92
24160;BME280;62385;41.594;23.808;2023-04-07T08:37:37;95252.59;;;9.91;36.41
24160;BME280;62385;41.594;23.808;2023-04-07T08:40:04;95244.84;;;9.26;38.33
24160;BME280;62385;41.594;23.808;2023-04-07T08:42:31;95244.50;;;9.37;38.20
24160;BME280;62385;41.594;23.808;2023-04-07T08:45:02;95246.44;;;9.98;39.19
24160;BME280;62385;41.594;23.808;2023-04-07T08:47:30;95243.13;;;9.96;38.27
24160;BME280;62385;41.594;23.808;2023-04-07T08:50:01;95246.09;;;10.01;37.67
24160;BME280;62385;41.594;23.808;2023-04-07T08:52:34;95237.84;;;9.41;37.91
24160;BME280;62385;41.594;23.808;2023-04-07T08:55:04;95235.84;;;9.51;37.28
24160;BME280;62385;41.594;23.808;2023-04-07T08:57:31;95233.25;;;10.21;37.82
24160;BME280;62385;41.594;23.808;2023-04-07T08:59:59;95231.50;;;10.05;38.34
24160;BME280;62385;41.594;23.808;2023-04-07T09:02:34;95231.47;;;10.67;38.46
24160;BME280;62385;41.594;23.808;2023-04-07T09:05:06;95229.03;;;10.35;38.04
24160;BME280;62385;41.594;23.808;2023-04-07T09:07:33;95227.34;;;10.03;37.83
24160;BME280;62385;41.594;23.808;2023-04-07T09:09:59;95221.22;;;9.71;38.98
24160;BME280;62385;41.594;23.808;2023-04-07T09:12:28;95228.13;;;9.81;38.97
24160;BME280;62385;41.594;23.808;2023-04-07T09:14:54;95225.97;;;10.91;37.78
24160;BME280;62385;41.594;23.808;2023-04-07T09:17:20;95224.00;;;10.85;39.16
24160;BME280;62385;41.594;23.808;2023-04-07T09:19:47;95212.44;;;11.16;39.25
24160;BME280;62385;41.594;23.808;2023-04-07T09:22:13;95212.75;;;11.21;37.83
24160;BME280;62385;41.594;23.808;2023-04-07T09:24:40;95210.88;;;11.06;38.04
24160;BME280;62385;41.594;23.808;2023-04-07T09:29:39;95217.09;;;11.51;39.18
24160;BME280;62385;41.594;23.808;2023-04-07T09:32:06;95214.41;;;10.61;38.13
24160;BME280;62385;41.594;23.808;2023-04-07T09:34:38;95213.25;;;10.64;38.78
24160;BME280;62385;41.594;23.808;2023-04-07T09:37:05;95205.44;;;10.40;39.16
24160;BME280;62385;41.594;23.808;2023-04-07T09:39:30;95196.34;;;11.32;39.70
24160;BME280;62385;41.594;23.808;2023-04-07T09:41:56;95194.91;;;11.58;40.41
24160;BME280;62385;41.594;23.808;2023-04-07T09:44:23;95186.72;;;11.31;39.46
24160;BME280;62385;41.594;23.808;2023-04-07T09:46:54;95186.63;;;11.68;39.39
24160;BME280;62385;41.594;23.808;2023-04-07T09:49:24;95176.72;;;11.77;39.17
24160;BME280;62385;41.594;23.808;2023-04-07T09:51:54;95187.25;;;11.99;39.49
24160;BME280;62385;41.594;23.808;2023-04-07T09:54:37;95171.97;;;12.44;36.99
24160;BME280;62385;41.594;23.808;2023-04-07T09:57:05;95189.41;;;10.93;38.03
24160;BME280;62385;41.594;23.808;2023-04-07T09:59:32;95183.44;;;11.73;37.37
24160;BME280;62385;41.594;23.808;2023-04-07T10:01:59;95184.38;;;10.84;36.22
24160;BME280;62385;41.594;23.808;2023-04-07T10:04:26;95187.31;;;11.03;36.74
24160;BME280;62385;41.594;23.808;2023-04-07T10:06:56;95184.31;;;11.06;36.28
24160;BME280;62385;41.594;23.808;2023-04-07T10:09:24;95182.88;;;11.33;36.04
24160;BME280;62385;41.594;23.808;2023-04-07T10:11:51;95176.34;;;11.36;35.67
24160;BME280;62385;41.594;23.808;2023-04-07T10:14:19;95178.84;;;11.96;36.61
24160;BME280;62385;41.594;23.808;2023-04-07T10:16:48;95175.19;;;11.53;35.55
24160;BME280;62385;41.594;23.808;2023-04-07T10:19:14;95166.50;;;12.94;35.80
24160;BME280;62385;41.594;23.808;2023-04-07T10:21:42;95163.69;;;12.75;35.26
24160;BME280;62385;41.594;23.808;2023-04-07T10:26:57;95161.47;;;12.57;33.05
24160;BME280;62385;41.594;23.808;2023-04-07T10:29:24;95157.47;;;12.25;33.52
24160;BME280;62385;41.594;23.808;2023-04-07T10:31:51;95157.22;;;11.40;35.11
24160;BME280;62385;41.594;23.808;2023-04-07T10:37:15;95162.00;;;11.74;35.48
24160;BME280;62385;41.594;23.808;2023-04-07T10:45:01;95155.16;;;12.22;32.92
24160;BME280;62385;41.594;23.808;2023-04-07T10:47:28;95138.44;;;13.26;33.55
24160;BME280;62385;41.594;23.808;2023-04-07T10:52:46;95141.09;;;13.20;32.55
24160;BME280;62385;41.594;23.808;2023-04-07T10:55:32;95153.38;;;12.50;31.66
24160;BME280;62385;41.594;23.808;2023-04-07T10:58:27;95139.50;;;12.55;31.97
24160;BME280;62385;41.594;23.808;2023-04-07T11:03:23;95144.25;;;13.09;34.99
24160;BME280;62385;41.594;23.808;2023-04-07T11:05:50;95144.97;;;13.52;31.88
24160;BME280;62385;41.594;23.808;2023-04-07T11:08:34;95146.38;;;13.88;31.39
24160;BME280;62385;41.594;23.808;2023-04-07T11:11:01;95148.94;;;13.00;32.29
24160;BME280;62385;41.594;23.808;2023-04-07T11:13:26;95147.31;;;12.35;33.07
24160;BME280;62385;41.594;23.808;2023-04-07T11:15:52;95148.06;;;12.50;33.77
24160;BME280;62385;41.594;23.808;2023-04-07T11:18:21;95138.63;;;13.53;33.24
24160;BME280;62385;41.594;23.808;2023-04-07T11:20:55;95125.03;;;13.13;32.76
24160;BME280;62385;41.594;23.808;2023-04-07T11:23:25;95107.03;;;12.17;35.55
24160;BME280;62385;41.594;23.808;2023-04-07T11:26:01;95134.81;;;13.75;35.08
24160;BME280;62385;41.594;23.808;2023-04-07T11:28:28;95130.03;;;13.57;31.66
24160;BME280;62385;41.594;23.808;2023-04-07T11:30:54;95125.34;;;14.26;32.59
24160;BME280;62385;41.594;23.808;2023-04-07T11:33:25;95133.13;;;13.26;32.75
24160;BME280;62385;41.594;23.808;2023-04-07T11:35:52;95130.50;;;12.56;31.44
24160;BME280;62385;41.594;23.808;2023-04-07T11:38:24;95122.34;;;12.36;31.88
24160;BME280;62385;41.594;23.808;2023-04-07T11:40:52;95121.53;;;12.85;32.67
24160;BME280;62385;41.594;23.808;2023-04-07T11:43:23;95126.72;;;12.23;32.42
24160;BME280;62385;41.594;23.808;2023-04-07T11:48:35;95125.44;;;13.45;31.83
24160;BME280;62385;41.594;23.808;2023-04-07T11:51:01;95114.75;;;13.92;31.69
24160;BME280;62385;41.594;23.808;2023-04-07T11:53:33;95116.88;;;14.16;30.60
24160;BME280;62385;41.594;23.808;2023-04-07T11:56:05;95112.47;;;14.37;28.60
24160;BME280;62385;41.594;23.808;2023-04-07T11:58:35;95109.78;;;14.37;27.50
24160;BME280;62385;41.594;23.808;2023-04-07T12:01:03;95109.28;;;14.07;28.83
24160;BME280;62385;41.594;23.808;2023-04-07T12:03:34;95107.94;;;14.50;31.88
24160;BME280;62385;41.594;23.808;2023-04-07T12:06:01;95107.84;;;14.11;29.86
24160;BME280;62385;41.594;23.808;2023-04-07T12:08:40;95106.97;;;13.97;32.29
24160;BME280;62385;41.594;23.808;2023-04-07T12:11:07;95094.91;;;15.46;28.86
24160;BME280;62385;41.594;23.808;2023-04-07T12:13:34;95104.06;;;13.38;30.86
24160;BME280;62385;41.594;23.808;2023-04-07T12:16:00;95104.25;;;14.71;29.81
24160;BME280;62385;41.594;23.808;2023-04-07T12:18:27;95099.75;;;14.98;26.97
24160;BME280;62385;41.594;23.808;2023-04-07T12:20:53;95097.66;;;15.13;26.26
24160;BME280;62385;41.594;23.808;2023-04-07T12:23:18;95099.31;;;14.88;26.47
24160;BME280;62385;41.594;23.808;2023-04-07T12:25:44;95096.03;;;14.99;27.03
24160;BME280;62385;41.594;23.808;2023-04-07T12:28:10;95088.34;;;15.42;27.45
24160;BME280;62385;41.594;23.808;2023-04-07T12:30:35;95093.59;;;14.91;30.20
24160;BME280;62385;41.594;23.808;2023-04-07T12:33:04;95094.59;;;14.50;30.94
24160;BME280;62385;41.594;23.808;2023-04-07T12:35:30;95095.28;;;13.44;30.67
24160;BME280;62385;41.594;23.808;2023-04-07T12:37:55;95089.25;;;14.50;28.84
24160;BME280;62385;41.594;23.808;2023-04-07T12:40:22;95094.41;;;13.84;28.09
24160;BME280;62385;41.594;23.808;2023-04-07T12:42:47;95096.28;;;13.36;28.21
24160;BME280;62385;41.594;23.808;2023-04-07T12:45:14;95089.91;;;13.78;25.27
24160;BME280;62385;41.594;23.808;2023-04-07T12:47:40;95078.28;;;15.31;24.02
24160;BME280;62385;41.594;23.808;2023-04-07T12:50:07;95082.53;;;13.87;23.83
24160;BME280;62385;41.594;23.808;2023-04-07T12:52:33;95081.19;;;15.16;23.99
24160;BME280;62385;41.594;23.808;2023-04-07T12:54:58;95081.63;;;15.19;24.41
24160;BME280;62385;41.594;23.808;2023-04-07T12:57:24;95075.41;;;15.25;25.02
24160;BME280;62385;41.594;23.808;2023-04-07T12:59:51;95080.00;;;14.46;22.63
24160;BME280;62385;41.594;23.808;2023-04-07T13:02:17;95082.09;;;14.57;21.90
24160;BME280;62385;41.594;23.808;2023-04-07T13:04:44;95080.16;;;15.17;23.46
24160;BME280;62385;41.594;23.808;2023-04-07T13:07:14;95076.34;;;16.08;23.06
24160;BME280;62385;41.594;23.808;2023-04-07T13:17:03;95075.47;;;14.47;21.23
24160;BME280;62385;41.594;23.808;2023-04-07T13:19:29;95062.13;;;14.60;21.84
24160;BME280;62385;41.594;23.808;2023-04-07T13:21:55;95069.16;;;15.64;24.64
24160;BME280;62385;41.594;23.808;2023-04-07T13:32:19;95061.00;;;15.40;20.89
24160;BME280;62385;41.594;23.808;2023-04-07T13:37:55;95071.38;;;16.99;21.35
24160;BME280;62385;41.594;23.808;2023-04-07T13:48:26;95068.78;;;16.93;22.40
24160;BME280;62385;41.594;23.808;2023-04-07T13:50:57;95077.41;;;17.38;21.40
24160;BME280;62385;41.594;23.808;2023-04-07T13:53:23;95074.69;;;16.77;22.53
24160;BME280;62385;41.594;23.808;2023-04-07T13:55:49;95073.81;;;16.20;22.47